CEB1086 RPMD-RPLC
Flight info
| Callsign | CEB1086 |
|---|---|
| Flight time | N/A |
| Altitude | 36000 |
| Route | JOFER3R JOFER W8 MCT W11 MIA DCT RAYAT RAYAT5R |
| Aircraft | A21N/M-SDE2E3FGHIRWXY/LB1 |
Departure
| Time | N/A |
|---|---|
| Airport | Francisco Bangoy International Airport (RPMD) |
Arrival
| Time | 2026-04-30 04:29 |
|---|---|
| Airport | Clark International Airport / Clark Air Base (RPLC) |
| Time | Latitude | Longitude | Altitude | Speed | Heading |
|---|---|---|---|---|---|
| 2026-04-30 04:04 | 13.62046 | 121.66008 | 35777 ft | 461 kts | 324° |
| 2026-04-30 04:05 | 13.64679 | 121.64121 | 35488 ft | 459 kts | 324° |
| 2026-04-30 04:05 | 13.67285 | 121.62255 | 35200 ft | 457 kts | 324° |
| 2026-04-30 04:05 | 13.69876 | 121.60402 | 34914 ft | 454 kts | 324° |
| 2026-04-30 04:05 | 13.72484 | 121.58540 | 34625 ft | 453 kts | 324° |
| 2026-04-30 04:06 | 13.75084 | 121.56683 | 34252 ft | 454 kts | 323° |
| 2026-04-30 04:06 | 13.77663 | 121.54838 | 33737 ft | 456 kts | 323° |
| 2026-04-30 04:06 | 13.80266 | 121.52973 | 33094 ft | 457 kts | 323° |
| 2026-04-30 04:06 | 13.82862 | 121.51112 | 32448 ft | 457 kts | 323° |
| 2026-04-30 04:07 | 13.85493 | 121.49226 | 31954 ft | 453 kts | 323° |
| 2026-04-30 04:07 | 13.88059 | 121.47384 | 31399 ft | 452 kts | 323° |
| 2026-04-30 04:07 | 13.90619 | 121.45544 | 30806 ft | 450 kts | 323° |
| 2026-04-30 04:08 | 13.95737 | 121.41866 | 29567 ft | 448 kts | 324° |
| 2026-04-30 04:08 | 13.98300 | 121.40022 | 28939 ft | 446 kts | 324° |
| 2026-04-30 04:08 | 14.00847 | 121.38191 | 28336 ft | 444 kts | 324° |
| 2026-04-30 04:08 | 14.03350 | 121.36390 | 27815 ft | 439 kts | 324° |
| 2026-04-30 04:09 | 14.05836 | 121.34603 | 27301 ft | 435 kts | 324° |
| 2026-04-30 04:09 | 14.08327 | 121.32810 | 26787 ft | 431 kts | 324° |
| 2026-04-30 04:09 | 14.10758 | 121.31063 | 26283 ft | 427 kts | 324° |
| 2026-04-30 04:09 | 14.13176 | 121.29327 | 25772 ft | 424 kts | 324° |
| 2026-04-30 04:10 | 14.15612 | 121.27573 | 25256 ft | 420 kts | 324° |
| 2026-04-30 04:10 | 14.17978 | 121.25868 | 24766 ft | 417 kts | 324° |
| 2026-04-30 04:10 | 14.20364 | 121.24149 | 24258 ft | 414 kts | 324° |
| 2026-04-30 04:10 | 14.22717 | 121.22453 | 23776 ft | 411 kts | 324° |
| 2026-04-30 04:11 | 14.25046 | 121.20778 | 23280 ft | 408 kts | 325° |
| 2026-04-30 04:11 | 14.27354 | 121.19119 | 22803 ft | 405 kts | 325° |
| 2026-04-30 04:11 | 14.29681 | 121.17443 | 22327 ft | 403 kts | 325° |
| 2026-04-30 04:11 | 14.31964 | 121.15798 | 21885 ft | 400 kts | 325° |
| 2026-04-30 04:12 | 14.34247 | 121.14153 | 21443 ft | 397 kts | 325° |
| 2026-04-30 04:12 | 14.36487 | 121.12536 | 21018 ft | 394 kts | 325° |
| 2026-04-30 04:12 | 14.38715 | 121.10926 | 20599 ft | 390 kts | 325° |
| 2026-04-30 04:12 | 14.40957 | 121.09306 | 20174 ft | 387 kts | 326° |
| 2026-04-30 04:13 | 14.43148 | 121.07722 | 19751 ft | 384 kts | 326° |
| 2026-04-30 04:13 | 14.45334 | 121.06143 | 19331 ft | 381 kts | 326° |
| 2026-04-30 04:13 | 14.47481 | 121.04591 | 18918 ft | 378 kts | 326° |
| 2026-04-30 04:13 | 14.49659 | 121.03097 | 18498 ft | 374 kts | 330° |
| 2026-04-30 04:14 | 14.51966 | 121.01884 | 18088 ft | 370 kts | 338° |
| 2026-04-30 04:14 | 14.54402 | 121.00952 | 17678 ft | 366 kts | 343° |
| 2026-04-30 04:14 | 14.56787 | 121.00153 | 17277 ft | 363 kts | 343° |
| 2026-04-30 04:14 | 14.59210 | 120.99358 | 16862 ft | 360 kts | 344° |
| 2026-04-30 04:15 | 14.61593 | 120.98576 | 16447 ft | 358 kts | 343° |
| 2026-04-30 04:15 | 14.63945 | 120.97800 | 16033 ft | 355 kts | 343° |
| 2026-04-30 04:15 | 14.66292 | 120.97020 | 15618 ft | 353 kts | 343° |
| 2026-04-30 04:15 | 14.68643 | 120.96236 | 15200 ft | 351 kts | 343° |
| 2026-04-30 04:16 | 14.70972 | 120.95459 | 14780 ft | 349 kts | 343° |
| 2026-04-30 04:16 | 14.73269 | 120.94691 | 14360 ft | 347 kts | 343° |
| 2026-04-30 04:16 | 14.75560 | 120.93926 | 13944 ft | 345 kts | 343° |
| 2026-04-30 04:16 | 14.77847 | 120.93160 | 13533 ft | 342 kts | 344° |
| 2026-04-30 04:17 | 14.80089 | 120.92409 | 13135 ft | 341 kts | 343° |
| 2026-04-30 04:17 | 14.82358 | 120.91650 | 12717 ft | 339 kts | 344° |
| 2026-04-30 04:17 | 14.84598 | 120.90900 | 12316 ft | 337 kts | 344° |
| 2026-04-30 04:17 | 14.86824 | 120.90153 | 11910 ft | 335 kts | 344° |
| 2026-04-30 04:18 | 14.89034 | 120.89413 | 11503 ft | 334 kts | 344° |
| 2026-04-30 04:18 | 14.91251 | 120.88670 | 11096 ft | 331 kts | 344° |
| 2026-04-30 04:18 | 14.93440 | 120.87936 | 10705 ft | 329 kts | 344° |
| 2026-04-30 04:18 | 14.95632 | 120.87200 | 10313 ft | 327 kts | 344° |
| 2026-04-30 04:19 | 14.97775 | 120.86481 | 10074 ft | 319 kts | 344° |
| 2026-04-30 04:19 | 14.99840 | 120.85786 | 9944 ft | 306 kts | 344° |
| 2026-04-30 04:19 | 15.01854 | 120.85111 | 9672 ft | 301 kts | 344° |
| 2026-04-30 04:19 | 15.03831 | 120.84447 | 9316 ft | 298 kts | 344° |
| 2026-04-30 04:20 | 15.05791 | 120.83780 | 8960 ft | 297 kts | 341° |
| 2026-04-30 04:20 | 15.07539 | 120.82630 | 8573 ft | 300 kts | 313° |
| 2026-04-30 04:20 | 15.08517 | 120.80749 | 8223 ft | 301 kts | 284° |
| 2026-04-30 04:20 | 15.08549 | 120.78619 | 7859 ft | 299 kts | 256° |
| 2026-04-30 04:21 | 15.07653 | 120.76711 | 7506 ft | 295 kts | 230° |
| 2026-04-30 04:21 | 15.06291 | 120.75163 | 7198 ft | 291 kts | 226° |
| 2026-04-30 04:21 | 15.04893 | 120.73633 | 6868 ft | 289 kts | 226° |
| 2026-04-30 04:21 | 15.03549 | 120.72128 | 6552 ft | 287 kts | 227° |
| 2026-04-30 04:22 | 15.02233 | 120.70568 | 6224 ft | 286 kts | 232° |
| 2026-04-30 04:22 | 15.01143 | 120.68863 | 5897 ft | 284 kts | 241° |
| 2026-04-30 04:22 | 15.00258 | 120.67060 | 5583 ft | 282 kts | 244° |
| 2026-04-30 04:22 | 14.99412 | 120.65219 | 5266 ft | 280 kts | 245° |
| 2026-04-30 04:23 | 14.98581 | 120.63406 | 5014 ft | 275 kts | 245° |
| 2026-04-30 04:23 | 14.97777 | 120.61668 | 4976 ft | 260 kts | 245° |
| 2026-04-30 04:23 | 14.97230 | 120.59952 | 4953 ft | 254 kts | 270° |
| 2026-04-30 04:23 | 14.97635 | 120.58216 | 4763 ft | 249 kts | 305° |
| 2026-04-30 04:24 | 14.98759 | 120.56868 | 4453 ft | 244 kts | 319° |
| 2026-04-30 04:24 | 14.99984 | 120.55678 | 4146 ft | 243 kts | 319° |
| 2026-04-30 04:24 | 15.01194 | 120.54455 | 3847 ft | 243 kts | 317° |
| 2026-04-30 04:24 | 15.01979 | 120.53616 | 3652 ft | 242 kts | 316° |
| 2026-04-30 04:25 | 15.03506 | 120.51946 | 3233 ft | 232 kts | 323° |
| 2026-04-30 04:25 | 15.04884 | 120.51279 | 2986 ft | 212 kts | 358° |
| 2026-04-30 04:25 | 15.06260 | 120.51401 | 2954 ft | 188 kts | 16° |
| 2026-04-30 04:25 | 15.07491 | 120.51808 | 2763 ft | 184 kts | 22° |
| 2026-04-30 04:26 | 15.08647 | 120.52279 | 2566 ft | 169 kts | 23° |
| 2026-04-30 04:26 | 15.09682 | 120.52706 | 2294 ft | 161 kts | 22° |
| 2026-04-30 04:26 | 15.10698 | 120.53115 | 2061 ft | 150 kts | 22° |
| 2026-04-30 04:26 | 15.11659 | 120.53496 | 1825 ft | 144 kts | 22° |
| 2026-04-30 04:27 | 15.12595 | 120.53866 | 1611 ft | 143 kts | 21° |
| 2026-04-30 04:27 | 15.13517 | 120.54231 | 1408 ft | 142 kts | 22° |
| 2026-04-30 04:27 | 15.14449 | 120.54600 | 1201 ft | 142 kts | 21° |
| 2026-04-30 04:27 | 15.15309 | 120.54940 | 1005 ft | 141 kts | 21° |
| 2026-04-30 04:28 | 15.16257 | 120.55319 | 788 ft | 141 kts | 22° |
| 2026-04-30 04:28 | 15.17168 | 120.55682 | 578 ft | 139 kts | 20° |
| 2026-04-30 04:28 | 15.18062 | 120.56026 | 473 ft | 127 kts | 22° |
| 2026-04-30 04:28 | 15.18735 | 120.56298 | 472 ft | 77 kts | 21° |
| 2026-04-30 04:29 | 15.19027 | 120.56414 | 472 ft | 19 kts | 20° |
| 2026-04-30 04:29 | 15.19128 | 120.56387 | 472 ft | 15 kts | 293° |
| 2026-04-30 04:29 | 15.19165 | 120.56282 | 472 ft | 15 kts | 289° |
| 2026-04-30 04:29 | 15.19206 | 120.56197 | 472 ft | 10 kts | 330° |
| 2026-04-30 04:30 | 15.19265 | 120.56209 | 472 ft | 8 kts | 22° |
| 2026-04-30 04:30 | 15.19320 | 120.56230 | 472 ft | 8 kts | 20° |
| 2026-04-30 04:30 | 15.19376 | 120.56252 | 472 ft | 8 kts | 22° |
| 2026-04-30 04:30 | 15.19426 | 120.56243 | 472 ft | 8 kts | 298° |
| 2026-04-30 04:31 | 15.19443 | 120.56188 | 472 ft | 7 kts | 284° |
| 2026-04-30 04:31 | 15.19461 | 120.56137 | 472 ft | 7 kts | 297° |
| 2026-04-30 04:31 | 15.19505 | 120.56130 | 472 ft | 6 kts | 16° |
| 2026-04-30 04:31 | 15.19547 | 120.56145 | 472 ft | 5 kts | 21° |
| 2026-04-30 04:32 | 15.19561 | 120.56151 | 472 ft | 0 kts | 21° |